createdAt,value
2018-05-08T00:01:37.176Z,11.80
2018-05-08T00:04:04.668Z,11.80
2018-05-08T00:06:32.187Z,12.20
2018-05-08T00:09:00.449Z,12.40
2018-05-08T00:11:28.560Z,12.40
2018-05-08T00:13:56.841Z,12.40
2018-05-08T00:16:25.112Z,12.40
2018-05-08T00:18:52.634Z,12.40
2018-05-08T00:21:20.164Z,12.50
2018-05-08T00:23:48.432Z,12.40
2018-05-08T00:26:15.979Z,12.40
2018-05-08T00:28:44.301Z,12.40
2018-05-08T00:31:11.816Z,12.30
2018-05-08T00:33:39.342Z,12.40
2018-05-08T00:36:06.863Z,12.30
2018-05-08T00:38:34.385Z,12.30
2018-05-08T00:41:01.892Z,12.30
2018-05-08T00:43:29.409Z,12.20
2018-05-08T00:45:56.946Z,12.20
2018-05-08T00:48:24.471Z,12.40
2018-05-08T00:50:51.987Z,12.50
2018-05-08T00:53:19.504Z,12.60
2018-05-08T00:55:47.032Z,12.70
2018-05-08T00:58:14.569Z,12.70
2018-05-08T01:00:42.855Z,12.60
2018-05-08T01:03:11.127Z,12.40
2018-05-08T01:05:38.651Z,12.40
2018-05-08T01:08:06.175Z,12.20
2018-05-08T01:10:34.464Z,11.50
2018-05-08T01:13:01.977Z,11.40
2018-05-08T01:15:29.459Z,11.20
2018-05-08T01:17:57.075Z,10.90
2018-05-08T01:20:24.594Z,10.70
2018-05-08T01:22:53.304Z,10.50
2018-05-08T01:28:16.016Z,10.10
2018-05-08T01:30:43.523Z,9.90
2018-05-08T01:33:11.788Z,9.60
2018-05-08T01:35:39.296Z,9.50
2018-05-08T01:38:06.821Z,9.40
2018-05-08T01:40:34.334Z,9.30
2018-05-08T01:43:01.905Z,9.30
2018-05-08T01:45:29.398Z,9.20
2018-05-08T01:47:56.929Z,9.10
2018-05-08T01:50:24.411Z,9.00
2018-05-08T01:52:52.675Z,8.90
2018-05-08T01:55:20.164Z,8.90
2018-05-08T01:57:48.438Z,8.70
2018-05-08T02:00:15.948Z,8.70
2018-05-08T02:02:43.465Z,8.60
2018-05-08T02:05:10.979Z,8.70
2018-05-08T02:07:39.263Z,8.70
2018-05-08T02:10:06.739Z,8.70
2018-05-08T02:12:34.237Z,8.70
2018-05-08T02:15:01.759Z,8.70
2018-05-08T02:17:30.010Z,8.50
2018-05-08T02:19:57.528Z,8.50
2018-05-08T02:22:25.806Z,8.30
2018-05-08T02:24:54.073Z,8.30
2018-05-08T02:27:21.570Z,8.30
2018-05-08T02:29:49.836Z,8.30
2018-05-08T02:32:17.331Z,8.30
2018-05-08T02:34:46.267Z,8.50
2018-05-08T02:37:13.755Z,8.50
2018-05-08T02:39:41.259Z,8.50
2018-05-08T02:42:08.755Z,8.70
2018-05-08T02:44:37.007Z,9.10
2018-05-08T02:47:04.503Z,9.10
2018-05-08T02:49:32.766Z,9.00
2018-05-08T02:52:00.300Z,9.00
2018-05-08T02:54:27.791Z,9.00
2018-05-08T02:56:55.330Z,9.00
2018-05-08T02:59:23.576Z,8.90
2018-05-08T03:01:51.059Z,8.90
2018-05-08T03:04:19.340Z,8.80
2018-05-08T03:06:46.831Z,8.80
2018-05-08T03:09:14.343Z,8.70
2018-05-08T03:11:41.831Z,8.60
2018-05-08T03:14:09.327Z,8.50
2018-05-08T03:16:37.617Z,8.30
2018-05-08T03:19:05.904Z,8.20
2018-05-08T03:21:34.190Z,8.20
2018-05-08T03:24:02.491Z,8.20
2018-05-08T03:26:30.767Z,8.10
2018-05-08T03:28:59.047Z,8.10
2018-05-08T03:31:26.629Z,8.10
2018-05-08T03:33:54.118Z,8.10
2018-05-08T03:36:21.608Z,8.20
2018-05-08T03:39:08.042Z,8.20
2018-05-08T03:41:47.235Z,8.20
2018-05-08T03:47:13.058Z,7.80
2018-05-08T03:49:40.611Z,7.80
2018-05-08T03:55:17.671Z,7.70
2018-05-08T03:57:45.175Z,7.70
2018-05-08T04:00:26.164Z,7.80
2018-05-08T04:03:06.170Z,7.70
2018-05-08T04:05:45.604Z,7.70
2018-05-08T04:08:21.220Z,7.80
2018-05-08T04:10:49.404Z,7.80
2018-05-08T04:13:16.944Z,7.70
2018-05-08T04:15:44.455Z,7.70
2018-05-08T04:18:11.948Z,7.80
2018-05-08T04:20:40.231Z,7.90
2018-05-08T04:23:08.528Z,8.00
2018-05-08T04:25:36.815Z,8.10
2018-05-08T04:28:05.079Z,8.30
2018-05-08T04:30:32.626Z,8.20
2018-05-08T04:33:00.134Z,8.30
2018-05-08T04:35:28.456Z,8.50
2018-05-08T04:37:55.949Z,8.50
2018-05-08T04:40:23.480Z,8.60
2018-05-08T04:42:51.744Z,8.90
2018-05-08T04:45:19.247Z,8.90
2018-05-08T04:47:46.940Z,9.00
2018-05-08T04:50:14.490Z,9.20
2018-05-08T04:52:41.999Z,9.30
2018-05-08T04:55:09.523Z,9.40
2018-05-08T04:57:37.802Z,9.70
2018-05-08T05:00:06.079Z,9.90
2018-05-08T05:02:33.595Z,9.80
2018-05-08T05:05:01.119Z,10.00
2018-05-08T05:07:38.426Z,10.20
2018-05-08T05:10:05.929Z,10.30
2018-05-08T05:12:33.461Z,10.50
2018-05-08T05:15:03.653Z,10.80
2018-05-08T05:17:31.143Z,10.80
2018-05-08T05:19:59.171Z,11.00
2018-05-08T05:22:26.684Z,11.20
2018-05-08T05:24:54.200Z,11.30
2018-05-08T05:27:40.179Z,11.70
2018-05-08T05:30:07.687Z,11.60
2018-05-08T05:32:35.937Z,12.20
2018-05-08T05:35:03.456Z,12.10
2018-05-08T05:37:30.960Z,12.40
2018-05-08T05:40:00.833Z,12.60
2018-05-08T05:42:28.317Z,12.80
2018-05-08T05:44:57.245Z,13.00
2018-05-08T05:47:24.747Z,13.00
2018-05-08T05:49:52.259Z,13.30
2018-05-08T05:52:20.547Z,13.70
2018-05-08T05:54:48.820Z,13.90
2018-05-08T05:57:16.324Z,13.90
2018-05-08T05:59:43.859Z,14.20
2018-05-08T06:02:11.368Z,14.40
2018-05-08T06:04:38.869Z,14.60
2018-05-08T06:07:06.422Z,14.80
2018-05-08T06:09:33.919Z,15.10
2018-05-08T06:12:02.159Z,15.40
2018-05-08T06:14:30.388Z,15.90
2018-05-08T06:17:01.114Z,15.90
2018-05-08T06:19:28.614Z,16.00
2018-05-08T06:21:56.127Z,16.10
2018-05-08T06:24:24.400Z,16.70
2018-05-08T06:26:51.915Z,16.60
2018-05-08T06:29:19.419Z,17.10
2018-05-08T06:31:46.927Z,17.80
2018-05-08T06:34:15.215Z,19.30
2018-05-08T06:36:43.518Z,19.60
2018-05-08T06:39:11.047Z,19.60
2018-05-08T06:41:38.513Z,20.60
2018-05-08T06:44:06.043Z,20.70
2018-05-08T06:46:33.528Z,20.00
2018-05-08T06:49:01.047Z,21.20
2018-05-08T06:51:28.618Z,21.50
2018-05-08T06:53:56.121Z,21.00
2018-05-08T06:56:23.615Z,22.10
2018-05-08T06:58:51.911Z,22.80
2018-05-08T07:01:19.609Z,22.20
2018-05-08T07:03:47.100Z,22.70
2018-05-08T07:06:21.294Z,23.50
2018-05-08T07:08:48.778Z,23.50
2018-05-08T07:11:16.311Z,22.50
2018-05-08T07:13:43.811Z,21.10
2018-05-08T07:16:11.401Z,20.70
2018-05-08T07:18:39.558Z,21.10
2018-05-08T07:21:07.047Z,21.10
2018-05-08T07:23:34.538Z,23.10
2018-05-08T07:26:02.807Z,23.60
2018-05-08T07:28:31.835Z,22.00
2018-05-08T07:31:00.841Z,21.10
2018-05-08T07:33:28.360Z,21.00
2018-05-08T07:35:55.891Z,21.70
2018-05-08T07:38:23.500Z,22.10
2018-05-08T07:40:50.948Z,21.70
2018-05-08T07:43:18.475Z,22.40
2018-05-08T07:45:45.959Z,21.80
2018-05-08T07:48:14.236Z,22.70
2018-05-08T07:50:41.839Z,22.70
2018-05-08T07:53:09.334Z,23.00
2018-05-08T07:55:36.847Z,24.10
2018-05-08T07:58:04.355Z,26.10
2018-05-08T08:00:31.910Z,27.40
2018-05-08T08:02:59.363Z,25.90
2018-05-08T08:05:26.877Z,25.30
2018-05-08T08:07:54.375Z,27.10
2018-05-08T08:10:21.880Z,26.30
2018-05-08T08:16:03.647Z,25.70
2018-05-08T08:18:31.187Z,25.20
2018-05-08T08:20:58.644Z,26.10
2018-05-08T08:23:26.949Z,26.40
2018-05-08T08:25:55.319Z,26.40
2018-05-08T08:28:22.863Z,26.20
2018-05-08T08:30:50.362Z,24.50
2018-05-08T08:33:17.888Z,25.10
2018-05-08T08:35:45.415Z,24.30
2018-05-08T08:38:12.967Z,24.10
2018-05-08T08:40:40.512Z,25.00
2018-05-08T08:46:00.959Z,25.90
2018-05-08T08:48:28.464Z,26.50
2018-05-08T08:50:55.991Z,26.20
2018-05-08T08:53:23.487Z,26.50
2018-05-08T08:55:50.973Z,24.20
2018-05-08T08:58:18.552Z,24.00
2018-05-08T09:00:46.092Z,25.70
2018-05-08T09:03:13.614Z,26.70
2018-05-08T09:05:41.900Z,26.20
2018-05-08T09:08:10.175Z,27.00
2018-05-08T09:10:37.660Z,27.00
2018-05-08T09:13:05.933Z,29.70
2018-05-08T09:15:33.507Z,29.50
2018-05-08T09:18:01.007Z,29.90
2018-05-08T09:20:28.495Z,25.40
2018-05-08T09:22:55.985Z,25.90
2018-05-08T09:25:23.540Z,26.80
2018-05-08T09:27:51.092Z,26.80
2018-05-08T09:30:18.621Z,27.70
2018-05-08T09:32:46.154Z,27.00
2018-05-08T09:35:13.627Z,27.20
2018-05-08T09:37:41.123Z,29.10
2018-05-08T09:40:08.623Z,25.90
2018-05-08T09:42:37.209Z,25.90
2018-05-08T09:45:04.692Z,25.90
2018-05-08T09:47:32.967Z,26.70
2018-05-08T09:50:00.446Z,26.60
2018-05-08T09:52:28.707Z,28.30
2018-05-08T09:54:56.239Z,28.20
2018-05-08T09:57:23.788Z,29.40
2018-05-08T09:59:51.335Z,29.20
2018-05-08T10:02:18.859Z,26.20
2018-05-08T10:04:46.351Z,24.80
2018-05-08T10:07:13.864Z,26.60
2018-05-08T10:09:42.119Z,28.20
2018-05-08T10:12:09.628Z,28.10
2018-05-08T10:14:37.887Z,28.30
2018-05-08T10:17:05.379Z,28.30
2018-05-08T10:19:33.644Z,30.20
2018-05-08T10:22:01.567Z,30.20
2018-05-08T10:24:31.980Z,31.80
2018-05-08T10:26:59.468Z,30.20
2018-05-08T10:29:27.723Z,27.30
2018-05-08T10:31:55.207Z,27.30
2018-05-08T10:34:22.703Z,28.10
2018-05-08T10:36:50.195Z,29.90
2018-05-08T10:39:17.757Z,28.90
2018-05-08T10:41:45.206Z,29.30
2018-05-08T10:44:14.347Z,28.30
2018-05-08T10:46:41.851Z,28.30
2018-05-08T10:49:09.374Z,29.30
2018-05-08T10:51:36.871Z,29.10
2018-05-08T10:54:04.424Z,27.50
2018-05-08T10:56:31.960Z,27.70
2018-05-08T10:59:00.248Z,27.70
2018-05-08T11:01:28.531Z,28.40
2018-05-08T11:03:56.037Z,28.30
2018-05-08T11:06:23.559Z,28.30
2018-05-08T11:08:51.061Z,29.30
2018-05-08T11:11:19.401Z,26.90
2018-05-08T11:13:46.927Z,26.80
2018-05-08T11:16:14.447Z,28.00
2018-05-08T11:18:41.952Z,28.90
2018-05-08T11:21:10.243Z,29.70
2018-05-08T11:23:38.560Z,27.70
2018-05-08T11:26:06.057Z,27.60
2018-05-08T11:28:33.550Z,25.70
2018-05-08T11:31:01.044Z,25.30
2018-05-08T11:33:29.320Z,26.40
2018-05-08T11:35:56.819Z,26.40
2018-05-08T11:38:28.191Z,27.10
2018-05-08T11:40:55.679Z,27.80
2018-05-08T11:43:23.202Z,29.60
2018-05-08T11:45:52.693Z,28.50
2018-05-08T11:48:20.224Z,28.50
2018-05-08T11:50:47.723Z,25.80
2018-05-08T11:53:15.272Z,26.30
2018-05-08T11:55:42.857Z,28.00
2018-05-08T11:58:11.102Z,27.60
2018-05-08T12:00:38.647Z,28.70
2018-05-08T12:06:05.503Z,26.60
2018-05-08T12:08:33.039Z,26.50
2018-05-08T12:11:00.553Z,26.60
2018-05-08T12:13:28.099Z,26.40
2018-05-08T12:15:55.608Z,26.40
2018-05-08T12:18:23.191Z,27.60
2018-05-08T12:20:50.707Z,28.00
2018-05-08T12:23:18.310Z,28.40
2018-05-08T12:25:45.755Z,30.00
2018-05-08T12:28:13.250Z,29.00
2018-05-08T12:30:40.768Z,30.10
2018-05-08T12:33:09.084Z,28.80
2018-05-08T12:35:36.587Z,28.70
2018-05-08T12:38:27.431Z,28.50
2018-05-08T12:40:54.948Z,29.40
2018-05-08T12:43:23.577Z,30.30
2018-05-08T12:45:51.104Z,32.50
2018-05-08T12:48:18.606Z,33.60
2018-05-08T12:50:46.220Z,34.00
2018-05-08T12:53:13.715Z,32.20
2018-05-08T12:55:41.240Z,29.30
2018-05-08T12:58:08.823Z,29.00
2018-05-08T13:00:36.324Z,29.90
2018-05-08T13:03:04.634Z,28.20
2018-05-08T13:05:32.146Z,28.10
2018-05-08T13:07:59.660Z,29.20
2018-05-08T13:10:27.187Z,28.60
2018-05-08T13:12:54.777Z,29.80
2018-05-08T13:15:22.289Z,28.90
2018-05-08T13:17:49.832Z,29.70
2018-05-08T13:20:17.400Z,30.20
2018-05-08T13:22:49.715Z,29.30
2018-05-08T13:25:18.082Z,31.00
2018-05-08T13:27:45.778Z,29.00
2018-05-08T13:30:13.289Z,29.20
2018-05-08T13:32:40.824Z,27.30
2018-05-08T13:35:11.384Z,27.30
2018-05-08T13:37:39.070Z,28.00
2018-05-08T13:40:06.511Z,28.60
2018-05-08T13:42:34.045Z,28.40
2018-05-08T13:45:01.534Z,28.10
2018-05-08T13:47:29.873Z,26.50
2018-05-08T13:49:57.964Z,26.50
2018-05-08T13:52:25.460Z,27.20
2018-05-08T13:54:53.014Z,27.80
2018-05-08T13:57:20.544Z,27.90
2018-05-08T13:59:48.043Z,27.90
2018-05-08T14:02:15.569Z,27.70
2018-05-08T14:04:43.071Z,27.30
2018-05-08T14:07:10.615Z,27.30
2018-05-08T14:09:38.131Z,27.40
2018-05-08T14:12:05.702Z,27.60
2018-05-08T14:14:33.285Z,28.60
2018-05-08T14:17:00.835Z,30.00
2018-05-08T14:19:28.359Z,29.40
2018-05-08T14:21:56.657Z,27.50
2018-05-08T14:24:24.157Z,27.40
2018-05-08T14:26:51.658Z,27.00
2018-05-08T14:29:19.832Z,25.20
2018-05-08T14:31:47.354Z,24.90
2018-05-08T14:34:14.892Z,24.20
2018-05-08T14:36:42.435Z,24.30
2018-05-08T14:39:09.968Z,24.60
2018-05-08T14:41:37.495Z,24.30
2018-05-08T14:44:05.040Z,24.00
2018-05-08T14:46:32.555Z,23.70
2018-05-08T14:49:00.708Z,23.80
2018-05-08T14:51:28.215Z,24.00
2018-05-08T14:53:55.769Z,23.80
2018-05-08T14:56:23.311Z,23.50
2018-05-08T14:58:50.887Z,23.40
2018-05-08T15:01:19.241Z,24.00
2018-05-08T15:03:46.807Z,23.90
2018-05-08T15:06:15.084Z,24.10
2018-05-08T15:08:45.531Z,24.10
2018-05-08T15:11:13.796Z,24.00
2018-05-08T15:13:41.317Z,23.90
2018-05-08T15:16:08.844Z,23.50
2018-05-08T15:18:37.069Z,23.80
2018-05-08T15:21:04.632Z,23.50
2018-05-08T15:23:32.136Z,23.70
2018-05-08T15:25:59.652Z,23.70
2018-05-08T15:28:27.171Z,23.70
2018-05-08T15:30:54.696Z,23.70
2018-05-08T15:33:23.001Z,23.30
2018-05-08T15:35:51.311Z,23.10
2018-05-08T15:38:18.855Z,23.10
2018-05-08T15:40:47.119Z,23.30
2018-05-08T15:43:14.604Z,23.30
2018-05-08T15:45:42.879Z,23.60
2018-05-08T15:48:10.395Z,23.60
2018-05-08T15:50:37.920Z,23.60
2018-05-08T15:53:05.439Z,23.30
2018-05-08T15:55:32.941Z,23.10
2018-05-08T15:58:00.428Z,23.10
2018-05-08T16:00:27.924Z,23.10
2018-05-08T16:02:56.203Z,22.80
2018-05-08T16:05:23.756Z,22.80
2018-05-08T16:07:51.255Z,23.00
2018-05-08T16:10:19.567Z,23.60
2018-05-08T16:12:47.174Z,23.60
2018-05-08T16:15:15.512Z,23.90
2018-05-08T16:17:43.047Z,23.90
2018-05-08T16:20:10.561Z,23.60
2018-05-08T16:22:38.900Z,23.10
2018-05-08T16:25:06.417Z,23.10
2018-05-08T16:27:33.940Z,23.30
2018-05-08T16:30:01.468Z,23.10
2018-05-08T16:32:28.976Z,23.00
2018-05-08T16:34:56.494Z,23.00
2018-05-08T16:37:24.779Z,22.70
2018-05-08T16:39:52.275Z,22.60
2018-05-08T16:42:19.783Z,22.40
2018-05-08T16:44:47.337Z,22.50
2018-05-08T16:47:14.901Z,22.30
2018-05-08T16:49:42.416Z,22.40
2018-05-08T16:52:15.462Z,22.30
2018-05-08T16:54:42.997Z,22.20
2018-05-08T16:57:10.507Z,22.00
2018-05-08T16:59:38.060Z,22.00
2018-05-08T17:02:05.609Z,22.00
2018-05-08T17:04:33.246Z,22.00
2018-05-08T17:07:00.785Z,22.10
2018-05-08T17:09:28.340Z,22.20
2018-05-08T17:11:56.684Z,22.10
2018-05-08T17:14:25.205Z,22.00
2018-05-08T17:16:52.808Z,22.00
2018-05-08T17:19:21.224Z,22.00
2018-05-08T17:21:48.705Z,22.00
2018-05-08T17:24:16.264Z,22.10
2018-05-08T17:26:43.792Z,21.90
2018-05-08T17:29:12.206Z,21.70
2018-05-08T17:31:39.769Z,21.80
2018-05-08T17:34:08.062Z,21.60
2018-05-08T17:36:36.364Z,21.60
2018-05-08T17:39:03.893Z,21.60
2018-05-08T17:41:31.391Z,21.50
2018-05-08T17:44:17.648Z,21.30
2018-05-08T17:46:45.170Z,21.20
2018-05-08T17:49:13.455Z,21.00
2018-05-08T17:51:42.600Z,21.00
2018-05-08T17:54:10.115Z,21.00
2018-05-08T17:56:37.636Z,20.90
2018-05-08T17:59:05.136Z,20.80
2018-05-08T18:01:32.648Z,20.70
2018-05-08T18:04:00.926Z,20.50
2018-05-08T18:06:28.437Z,20.50
2018-05-08T18:08:55.979Z,20.40
2018-05-08T18:11:31.170Z,20.10
2018-05-08T18:13:58.696Z,20.10
2018-05-08T18:16:43.563Z,20.00
2018-05-08T18:19:12.140Z,19.90
2018-05-08T18:21:40.424Z,19.60
2018-05-08T18:24:07.940Z,19.60
2018-05-08T18:26:36.224Z,19.40
2018-05-08T18:29:04.532Z,19.30
2018-05-08T18:31:32.142Z,19.30
2018-05-08T18:34:01.856Z,19.20
2018-05-08T18:36:33.915Z,19.10
2018-05-08T18:39:01.558Z,19.00
2018-05-08T18:41:33.188Z,18.70
2018-05-08T18:44:00.804Z,18.70
2018-05-08T18:46:31.772Z,18.60
2018-05-08T18:48:59.417Z,18.50
2018-05-08T18:51:26.998Z,18.30
2018-05-08T18:53:55.404Z,18.20
2018-05-08T18:56:23.038Z,18.00
2018-05-08T18:58:51.557Z,17.90
2018-05-08T19:01:19.880Z,17.80
2018-05-08T19:03:47.469Z,17.80
2018-05-08T19:06:16.981Z,17.70
2018-05-08T19:08:44.495Z,17.60
2018-05-08T19:11:17.785Z,17.70
2018-05-08T19:13:52.082Z,17.80
2018-05-08T19:16:20.497Z,17.70
2018-05-08T19:18:53.797Z,17.70
2018-05-08T19:21:21.494Z,17.80
2018-05-08T19:23:54.863Z,17.60
2018-05-08T19:26:22.411Z,17.70
2018-05-08T19:29:01.144Z,17.50
2018-05-08T19:31:28.700Z,17.50
2018-05-08T19:33:56.296Z,17.40
2018-05-08T19:36:29.791Z,17.30
2018-05-08T19:38:58.474Z,17.10
2018-05-08T19:44:20.494Z,16.80
2018-05-08T19:46:48.215Z,16.70
2018-05-08T19:49:16.053Z,16.60
2018-05-08T19:51:43.783Z,16.40
2018-05-08T19:54:11.331Z,16.20
2018-05-08T19:56:38.935Z,16.00
2018-05-08T19:59:06.532Z,15.90
2018-05-08T20:01:34.122Z,15.70
2018-05-08T20:04:02.096Z,15.50
2018-05-08T20:09:29.192Z,15.30
2018-05-08T20:11:56.725Z,15.10
2018-05-08T20:14:24.252Z,15.00
2018-05-08T20:16:52.576Z,14.90
2018-05-08T20:19:20.127Z,14.70
2018-05-08T20:21:48.155Z,14.50
2018-05-08T20:24:16.517Z,14.30
2018-05-08T20:26:44.082Z,14.20
2018-05-08T20:29:12.612Z,14.20
2018-05-08T20:31:40.120Z,14.20
2018-05-08T20:34:07.810Z,14.20
2018-05-08T20:36:35.365Z,14.30
2018-05-08T20:39:02.856Z,14.50
2018-05-08T20:41:30.385Z,14.70
2018-05-08T20:43:57.906Z,15.20
2018-05-08T20:46:25.432Z,15.50
2018-05-08T20:48:53.772Z,15.90
2018-05-08T20:51:21.335Z,15.80
2018-05-08T20:53:48.869Z,16.00
2018-05-08T20:56:16.479Z,16.10
2018-05-08T20:58:43.987Z,16.20
2018-05-08T21:01:11.599Z,16.20
2018-05-08T21:03:39.004Z,16.20
2018-05-08T21:06:07.291Z,16.30
2018-05-08T21:08:34.779Z,16.20
2018-05-08T21:11:02.295Z,16.30
2018-05-08T21:13:29.893Z,16.30
2018-05-08T21:15:57.592Z,16.30
2018-05-08T21:18:25.129Z,16.20
2018-05-08T21:20:52.647Z,16.10
2018-05-08T21:23:20.179Z,16.10
2018-05-08T21:25:47.699Z,16.10
2018-05-08T21:28:21.583Z,16.00
2018-05-08T21:30:54.875Z,16.00
2018-05-08T21:33:22.348Z,15.90
2018-05-08T21:35:50.619Z,15.80
2018-05-08T21:38:18.137Z,15.80
2018-05-08T21:40:45.631Z,15.80
2018-05-08T21:43:13.919Z,15.60
2018-05-08T21:45:42.425Z,15.70
2018-05-08T21:48:10.708Z,15.70
2018-05-08T21:50:39.060Z,15.60
2018-05-08T21:53:06.576Z,15.60
2018-05-08T21:55:34.112Z,15.50
2018-05-08T21:58:01.620Z,15.50
2018-05-08T22:00:29.139Z,15.40
2018-05-08T22:02:56.661Z,15.30
2018-05-08T22:05:24.151Z,15.20
2018-05-08T22:07:51.684Z,15.10
2018-05-08T22:10:19.940Z,15.00
2018-05-08T22:12:47.714Z,15.00
2018-05-08T22:15:15.229Z,14.90
2018-05-08T22:17:43.512Z,14.80
2018-05-08T22:20:11.895Z,14.70
2018-05-08T22:22:40.091Z,14.70
2018-05-08T22:25:08.419Z,14.70
2018-05-08T22:27:35.919Z,14.70
2018-05-08T22:30:03.436Z,14.60
2018-05-08T22:32:30.958Z,14.50
2018-05-08T22:34:58.487Z,14.50
2018-05-08T22:37:25.980Z,14.40
2018-05-08T22:39:53.490Z,14.30
2018-05-08T22:42:21.776Z,14.20
2018-05-08T22:44:49.280Z,14.20
2018-05-08T22:47:16.796Z,14.20
2018-05-08T22:49:44.334Z,14.10
2018-05-08T22:52:11.851Z,14.10
2018-05-08T22:54:39.352Z,14.10
2018-05-08T22:57:06.859Z,14.00
2018-05-08T22:59:34.377Z,14.00
2018-05-08T23:02:02.676Z,14.00
2018-05-08T23:04:30.931Z,14.00
2018-05-08T23:06:58.475Z,14.00
2018-05-08T23:09:25.982Z,13.90
2018-05-08T23:11:53.483Z,13.90
2018-05-08T23:14:21.779Z,13.80
2018-05-08T23:16:49.290Z,13.80
2018-05-08T23:19:17.791Z,13.70
2018-05-08T23:21:45.283Z,13.70
2018-05-08T23:24:12.788Z,13.60
2018-05-08T23:26:40.307Z,13.50
2018-05-08T23:29:07.827Z,13.40
2018-05-08T23:31:35.381Z,13.20
2018-05-08T23:34:03.673Z,12.90
2018-05-08T23:36:31.946Z,12.80
2018-05-08T23:38:59.455Z,12.70
2018-05-08T23:41:26.952Z,12.70
2018-05-08T23:43:54.471Z,12.60
2018-05-08T23:46:21.979Z,12.50
2018-05-08T23:48:49.504Z,12.50
2018-05-08T23:51:18.736Z,12.40
2018-05-08T23:53:46.258Z,12.40
2018-05-08T23:56:13.803Z,12.40
2018-05-08T23:58:41.316Z,12.50
